aviador You're here:

OIMQ Decoded Metar

KASHMAR in IRAN
Report Time2018-07-20 06:00:00
UTC Time2018-07-20 06:44:46
Flight Rules unknown UNKNOWN
Wind120° at 10 kt
W.Rank120° ranks 1
Current wind is above 120° avg. (7.4)
VisibilityN/A
Phenomena:N/A
Clouds:N/A
Expected CloudBase > 12,400 ft AGL from Temp-Dew spread
CeilingNone
Temp36°C
Dew Point05°C (14% RH)
Heat Index33.5°C
AAT31.1°C
QNH1008 hPa
Raw Report
METAR OIMQ 200600Z AUTO 12010KT //// // ////// 36/05 Q1008=

Extra information for OIMQ:More info

Metar Taf Metar & Taf Last 4 Metars F.Rules Stats Wind Profile Meteogram Temp Stats Metar ALERT Operation Metar Decoded Social comments